sensor_id;sensor_type;location;lat;lon;timestamp;pressure;altitude;pressure_sealevel;temperature;humidity
49979;BME280;35869;50.990;6.962;2022-07-23T00:04:24;101454.66;;;19.43;84.11
49979;BME280;35869;50.990;6.962;2022-07-23T00:09:25;101457.50;;;19.28;85.14
49979;BME280;35869;50.990;6.962;2022-07-23T00:14:25;101465.09;;;19.32;89.41
49979;BME280;35869;50.990;6.962;2022-07-23T00:19:25;101489.66;;;19.07;91.19
49979;BME280;35869;50.990;6.962;2022-07-23T00:24:26;101477.19;;;19.09;90.12
49979;BME280;35869;50.990;6.962;2022-07-23T00:29:26;101462.03;;;19.00;90.42
49979;BME280;35869;50.990;6.962;2022-07-23T00:34:26;101458.63;;;18.85;87.69
49979;BME280;35869;50.990;6.962;2022-07-23T00:39:26;101469.16;;;18.73;91.34
49979;BME280;35869;50.990;6.962;2022-07-23T00:44:27;101465.28;;;18.64;91.97
49979;BME280;35869;50.990;6.962;2022-07-23T00:49:29;101464.78;;;18.59;92.63
49979;BME280;35869;50.990;6.962;2022-07-23T00:54:30;101449.28;;;18.54;94.28
49979;BME280;35869;50.990;6.962;2022-07-23T00:59:30;101449.56;;;18.50;92.65
49979;BME280;35869;50.990;6.962;2022-07-23T01:04:31;101449.97;;;18.44;93.84
49979;BME280;35869;50.990;6.962;2022-07-23T01:09:31;101445.97;;;18.38;94.11
49979;BME280;35869;50.990;6.962;2022-07-23T01:14:31;101461.19;;;18.33;93.72
49979;BME280;35869;50.990;6.962;2022-07-23T01:19:32;101440.34;;;18.30;93.47
49979;BME280;35869;50.990;6.962;2022-07-23T01:24:32;101441.59;;;18.24;93.71
49979;BME280;35869;50.990;6.962;2022-07-23T01:29:32;101441.88;;;18.20;94.99
49979;BME280;35869;50.990;6.962;2022-07-23T01:34:32;101436.81;;;18.17;94.68
49979;BME280;35869;50.990;6.962;2022-07-23T01:39:33;101434.28;;;18.15;95.48
49979;BME280;35869;50.990;6.962;2022-07-23T01:44:33;101436.66;;;18.05;95.16
49979;BME280;35869;50.990;6.962;2022-07-23T01:49:33;101426.91;;;18.07;96.88
49979;BME280;35869;50.990;6.962;2022-07-23T01:54:33;101416.84;;;18.00;95.02
49979;BME280;35869;50.990;6.962;2022-07-23T01:59:34;101426.63;;;17.98;97.27
49979;BME280;35869;50.990;6.962;2022-07-23T02:04:35;101428.81;;;17.91;96.23
49979;BME280;35869;50.990;6.962;2022-07-23T02:09:35;101427.03;;;17.92;96.79
49979;BME280;35869;50.990;6.962;2022-07-23T02:14:35;101434.25;;;17.88;97.31
49979;BME280;35869;50.990;6.962;2022-07-23T02:19:35;101433.41;;;17.88;98.72
49979;BME280;35869;50.990;6.962;2022-07-23T02:24:36;101423.22;;;17.83;98.46
49979;BME280;35869;50.990;6.962;2022-07-23T02:29:36;101426.69;;;17.83;99.63
49979;BME280;35869;50.990;6.962;2022-07-23T02:34:36;101418.97;;;17.80;98.58
49979;BME280;35869;50.990;6.962;2022-07-23T02:39:36;101426.22;;;17.77;97.69
49979;BME280;35869;50.990;6.962;2022-07-23T02:44:37;101420.56;;;17.69;98.13
49979;BME280;35869;50.990;6.962;2022-07-23T02:49:37;101425.81;;;17.69;98.70
49979;BME280;35869;50.990;6.962;2022-07-23T02:54:37;101420.00;;;17.64;98.51
49979;BME280;35869;50.990;6.962;2022-07-23T02:59:38;101426.09;;;17.64;98.38
49979;BME280;35869;50.990;6.962;2022-07-23T03:04:38;101431.34;;;17.64;99.12
49979;BME280;35869;50.990;6.962;2022-07-23T03:09:38;101430.91;;;17.57;98.68
49979;BME280;35869;50.990;6.962;2022-07-23T03:14:39;101429.03;;;17.59;97.54
49979;BME280;35869;50.990;6.962;2022-07-23T03:19:39;101421.34;;;17.56;98.44
49979;BME280;35869;50.990;6.962;2022-07-23T03:24:39;101420.22;;;17.46;98.63
49979;BME280;35869;50.990;6.962;2022-07-23T03:29:39;101424.38;;;17.36;99.65
49979;BME280;35869;50.990;6.962;2022-07-23T03:34:40;101426.78;;;17.39;98.69
49979;BME280;35869;50.990;6.962;2022-07-23T03:39:40;101424.72;;;17.16;100.00
49979;BME280;35869;50.990;6.962;2022-07-23T03:44:41;101427.63;;;17.11;97.82
49979;BME280;35869;50.990;6.962;2022-07-23T03:49:41;101427.81;;;17.22;98.22
49979;BME280;35869;50.990;6.962;2022-07-23T03:54:41;101442.00;;;17.20;97.66
49979;BME280;35869;50.990;6.962;2022-07-23T03:59:41;101432.44;;;17.19;97.94
49979;BME280;35869;50.990;6.962;2022-07-23T04:04:42;101427.53;;;17.13;99.41
49979;BME280;35869;50.990;6.962;2022-07-23T04:09:42;101426.59;;;17.14;98.30
49979;BME280;35869;50.990;6.962;2022-07-23T04:14:42;101431.28;;;17.09;97.47
49979;BME280;35869;50.990;6.962;2022-07-23T04:19:43;101444.13;;;16.99;99.72
49979;BME280;35869;50.990;6.962;2022-07-23T04:24:43;101430.72;;;17.03;99.12
49979;BME280;35869;50.990;6.962;2022-07-23T04:29:43;101441.22;;;17.03;99.28
49979;BME280;35869;50.990;6.962;2022-07-23T04:34:43;101448.53;;;16.98;99.61
49979;BME280;35869;50.990;6.962;2022-07-23T04:39:44;101453.03;;;16.96;98.45
49979;BME280;35869;50.990;6.962;2022-07-23T04:44:44;101467.38;;;16.91;98.40
49979;BME280;35869;50.990;6.962;2022-07-23T04:49:44;101482.44;;;16.87;97.38
49979;BME280;35869;50.990;6.962;2022-07-23T04:54:44;101485.84;;;16.89;98.58
49979;BME280;35869;50.990;6.962;2022-07-23T04:59:45;101491.47;;;16.83;98.38
49979;BME280;35869;50.990;6.962;2022-07-23T05:04:45;101489.38;;;16.88;97.06
49979;BME280;35869;50.990;6.962;2022-07-23T05:09:45;101499.88;;;16.88;97.92
49979;BME280;35869;50.990;6.962;2022-07-23T05:14:47;101504.13;;;16.91;97.13
49979;BME280;35869;50.990;6.962;2022-07-23T05:19:47;101519.56;;;16.81;99.03
49979;BME280;35869;50.990;6.962;2022-07-23T05:24:47;101514.66;;;16.75;99.98
49979;BME280;35869;50.990;6.962;2022-07-23T05:29:47;101512.97;;;16.74;99.11
49979;BME280;35869;50.990;6.962;2022-07-23T05:34:48;101518.63;;;16.82;98.59
49979;BME280;35869;50.990;6.962;2022-07-23T05:39:49;101512.97;;;16.74;98.18
49979;BME280;35869;50.990;6.962;2022-07-23T05:44:49;101520.22;;;16.69;98.61
49979;BME280;35869;50.990;6.962;2022-07-23T05:49:49;101520.09;;;16.72;100.00
49979;BME280;35869;50.990;6.962;2022-07-23T05:54:50;101524.16;;;16.77;100.00
49979;BME280;35869;50.990;6.962;2022-07-23T05:59:50;101524.22;;;16.76;97.50
49979;BME280;35869;50.990;6.962;2022-07-23T06:04:50;101531.75;;;16.82;94.45
49979;BME280;35869;50.990;6.962;2022-07-23T06:09:50;101529.72;;;16.87;95.34
49979;BME280;35869;50.990;6.962;2022-07-23T06:14:51;101529.72;;;16.87;97.09
49979;BME280;35869;50.990;6.962;2022-07-23T06:19:51;101524.94;;;16.94;96.25
49979;BME280;35869;50.990;6.962;2022-07-23T06:24:51;101538.00;;;16.95;97.94
49979;BME280;35869;50.990;6.962;2022-07-23T06:29:51;101538.59;;;17.00;96.77
49979;BME280;35869;50.990;6.962;2022-07-23T06:34:52;101545.22;;;17.06;99.83
49979;BME280;35869;50.990;6.962;2022-07-23T06:39:52;101534.22;;;17.15;99.34
49979;BME280;35869;50.990;6.962;2022-07-23T06:44:52;101530.22;;;17.24;98.32
49979;BME280;35869;50.990;6.962;2022-07-23T06:49:52;101534.53;;;17.25;97.38
49979;BME280;35869;50.990;6.962;2022-07-23T06:54:53;101540.63;;;17.25;98.65
49979;BME280;35869;50.990;6.962;2022-07-23T06:59:53;101539.41;;;17.31;97.54
49979;BME280;35869;50.990;6.962;2022-07-23T07:04:53;101544.09;;;17.40;100.00
49979;BME280;35869;50.990;6.962;2022-07-23T07:09:53;101550.78;;;17.46;98.78
49979;BME280;35869;50.990;6.962;2022-07-23T07:14:54;101552.38;;;17.48;97.30
49979;BME280;35869;50.990;6.962;2022-07-23T07:19:54;101559.25;;;17.65;97.23
49979;BME280;35869;50.990;6.962;2022-07-23T07:24:54;101564.31;;;17.68;97.97
49979;BME280;35869;50.990;6.962;2022-07-23T07:29:54;101561.59;;;17.70;96.71
49979;BME280;35869;50.990;6.962;2022-07-23T07:34:55;101562.03;;;17.78;95.86
49979;BME280;35869;50.990;6.962;2022-07-23T07:39:55;101562.59;;;17.83;94.20
49979;BME280;35869;50.990;6.962;2022-07-23T07:44:55;101581.53;;;17.88;96.21
49979;BME280;35869;50.990;6.962;2022-07-23T07:49:55;101567.47;;;17.89;94.46
49979;BME280;35869;50.990;6.962;2022-07-23T07:54:56;101572.03;;;18.00;94.38
49979;BME280;35869;50.990;6.962;2022-07-23T07:59:58;101582.38;;;18.17;93.67
49979;BME280;35869;50.990;6.962;2022-07-23T08:04:59;101584.78;;;18.34;94.22
49979;BME280;35869;50.990;6.962;2022-07-23T08:09:59;101587.81;;;18.43;92.18
49979;BME280;35869;50.990;6.962;2022-07-23T08:14:59;101587.03;;;18.55;94.06
49979;BME280;35869;50.990;6.962;2022-07-23T08:19:59;101590.84;;;18.63;92.35
49979;BME280;35869;50.990;6.962;2022-07-23T08:24:59;101596.59;;;18.70;91.25
49979;BME280;35869;50.990;6.962;2022-07-23T08:30:00;101602.31;;;18.77;92.56
49979;BME280;35869;50.990;6.962;2022-07-23T08:35:00;101604.41;;;18.72;94.79
49979;BME280;35869;50.990;6.962;2022-07-23T08:40:00;101605.47;;;19.09;89.20
49979;BME280;35869;50.990;6.962;2022-07-23T08:45:02;101599.81;;;19.15;87.46
49979;BME280;35869;50.990;6.962;2022-07-23T08:50:03;101600.38;;;19.33;86.17
49979;BME280;35869;50.990;6.962;2022-07-23T08:55:04;101613.44;;;19.34;88.43
49979;BME280;35869;50.990;6.962;2022-07-23T09:00:05;101614.59;;;19.30;89.39
49979;BME280;35869;50.990;6.962;2022-07-23T09:05:06;101616.81;;;19.76;85.13
49979;BME280;35869;50.990;6.962;2022-07-23T09:10:11;101612.06;;;19.94;84.06
49979;BME280;35869;50.990;6.962;2022-07-23T09:15:11;101616.25;;;20.09;83.76
49979;BME280;35869;50.990;6.962;2022-07-23T09:20:17;101609.97;;;20.36;81.63
49979;BME280;35869;50.990;6.962;2022-07-23T09:25:18;101611.63;;;20.86;80.56
49979;BME280;35869;50.990;6.962;2022-07-23T09:30:24;101613.34;;;20.87;83.91
49979;BME280;35869;50.990;6.962;2022-07-23T09:35:43;101625.50;;;21.25;83.23
49979;BME280;35869;50.990;6.962;2022-07-23T09:40:45;101628.53;;;21.78;77.20
49979;BME280;35869;50.990;6.962;2022-07-23T09:45:45;101625.66;;;22.03;76.00
49979;BME280;35869;50.990;6.962;2022-07-23T09:50:45;101619.53;;;21.92;78.59
49979;BME280;35869;50.990;6.962;2022-07-23T09:55:45;101615.56;;;22.53;74.27
49979;BME280;35869;50.990;6.962;2022-07-23T10:00:46;101614.50;;;22.99;77.36
49979;BME280;35869;50.990;6.962;2022-07-23T10:05:48;101606.78;;;23.28;78.67
49979;BME280;35869;50.990;6.962;2022-07-23T10:10:50;101616.97;;;23.12;74.82
49979;BME280;35869;50.990;6.962;2022-07-23T10:15:51;101601.09;;;23.84;73.41
49979;BME280;35869;50.990;6.962;2022-07-23T10:20:51;101601.56;;;24.30;71.74
49979;BME280;35869;50.990;6.962;2022-07-23T10:31:18;101593.22;;;24.44;68.69
49979;BME280;35869;50.990;6.962;2022-07-23T10:36:30;101598.53;;;24.44;68.02
49979;BME280;35869;50.990;6.962;2022-07-23T10:41:38;101598.88;;;24.70;65.93
49979;BME280;35869;50.990;6.962;2022-07-23T10:46:59;101586.13;;;25.41;65.66
49979;BME280;35869;50.990;6.962;2022-07-23T10:52:21;101579.84;;;25.33;67.18
49979;BME280;35869;50.990;6.962;2022-07-23T10:57:26;101575.25;;;25.82;62.22
49979;BME280;35869;50.990;6.962;2022-07-23T11:02:29;101579.06;;;26.07;59.85
49979;BME280;35869;50.990;6.962;2022-07-23T11:07:29;101577.03;;;26.18;64.10
49979;BME280;35869;50.990;6.962;2022-07-23T11:17:32;101574.00;;;26.31;63.70
49979;BME280;35869;50.990;6.962;2022-07-23T11:27:43;101562.97;;;26.71;62.42
49979;BME280;35869;50.990;6.962;2022-07-23T11:32:44;101571.56;;;26.83;60.86
49979;BME280;35869;50.990;6.962;2022-07-23T11:37:45;101565.22;;;27.20;57.85
49979;BME280;35869;50.990;6.962;2022-07-23T11:43:00;101570.56;;;26.48;55.71
49979;BME280;35869;50.990;6.962;2022-07-23T11:48:01;101568.50;;;26.42;54.27
49979;BME280;35869;50.990;6.962;2022-07-23T11:53:02;101571.34;;;26.58;56.61
49979;BME280;35869;50.990;6.962;2022-07-23T11:58:04;101561.66;;;27.11;56.00
49979;BME280;35869;50.990;6.962;2022-07-23T12:03:05;101555.72;;;26.99;54.72
49979;BME280;35869;50.990;6.962;2022-07-23T12:08:06;101561.38;;;27.40;54.71
49979;BME280;35869;50.990;6.962;2022-07-23T12:18:11;101546.00;;;28.02;53.49
49979;BME280;35869;50.990;6.962;2022-07-23T12:23:14;101555.91;;;27.76;56.32
49979;BME280;35869;50.990;6.962;2022-07-23T12:33:32;101552.81;;;27.36;54.54
49979;BME280;35869;50.990;6.962;2022-07-23T12:38:46;101557.75;;;27.49;52.78
49979;BME280;35869;50.990;6.962;2022-07-23T12:43:47;101559.88;;;28.06;52.59
49979;BME280;35869;50.990;6.962;2022-07-23T12:53:50;101560.50;;;27.66;49.57
49979;BME280;35869;50.990;6.962;2022-07-23T12:59:14;101564.56;;;28.04;51.78
49979;BME280;35869;50.990;6.962;2022-07-23T13:04:19;101564.56;;;28.12;50.53
49979;BME280;35869;50.990;6.962;2022-07-23T13:09:22;101558.34;;;28.54;51.62
49979;BME280;35869;50.990;6.962;2022-07-23T13:14:24;101564.47;;;28.30;51.89
49979;BME280;35869;50.990;6.962;2022-07-23T13:19:25;101567.09;;;28.13;46.44
49979;BME280;35869;50.990;6.962;2022-07-23T13:24:25;101560.03;;;28.47;45.45
49979;BME280;35869;50.990;6.962;2022-07-23T13:29:26;101558.50;;;27.94;46.96
49979;BME280;35869;50.990;6.962;2022-07-23T13:34:26;101559.88;;;28.64;47.43
49979;BME280;35869;50.990;6.962;2022-07-23T13:39:26;101561.63;;;27.81;49.51
49979;BME280;35869;50.990;6.962;2022-07-23T13:44:26;101554.59;;;28.30;49.22
49979;BME280;35869;50.990;6.962;2022-07-23T13:49:27;101550.47;;;28.36;50.13
49979;BME280;35869;50.990;6.962;2022-07-23T13:54:27;101549.03;;;27.73;50.00
49979;BME280;35869;50.990;6.962;2022-07-23T13:59:27;101534.97;;;27.97;49.57
49979;BME280;35869;50.990;6.962;2022-07-23T14:04:28;101545.66;;;27.97;50.39
49979;BME280;35869;50.990;6.962;2022-07-23T14:09:28;101539.91;;;27.76;48.32
49979;BME280;35869;50.990;6.962;2022-07-23T14:14:28;101545.72;;;27.71;50.78
49979;BME280;35869;50.990;6.962;2022-07-23T14:19:29;101535.16;;;28.04;44.02
49979;BME280;35869;50.990;6.962;2022-07-23T14:24:29;101543.31;;;28.02;49.69
49979;BME280;35869;50.990;6.962;2022-07-23T14:29:29;101536.19;;;28.11;49.07
49979;BME280;35869;50.990;6.962;2022-07-23T14:34:30;101540.56;;;27.78;50.36
49979;BME280;35869;50.990;6.962;2022-07-23T14:39:30;101542.19;;;27.71;51.39
49979;BME280;35869;50.990;6.962;2022-07-23T14:44:30;101537.75;;;27.79;47.24
49979;BME280;35869;50.990;6.962;2022-07-23T14:49:32;101531.19;;;27.48;52.58
49979;BME280;35869;50.990;6.962;2022-07-23T14:54:33;101520.84;;;27.79;47.40
49979;BME280;35869;50.990;6.962;2022-07-23T14:59:33;101525.91;;;27.82;49.06
49979;BME280;35869;50.990;6.962;2022-07-23T15:04:33;101513.19;;;27.84;46.71
49979;BME280;35869;50.990;6.962;2022-07-23T15:09:34;101512.28;;;27.33;52.68
49979;BME280;35869;50.990;6.962;2022-07-23T15:14:34;101524.00;;;27.40;52.07
49979;BME280;35869;50.990;6.962;2022-07-23T15:19:34;101523.97;;;27.14;50.43
49979;BME280;35869;50.990;6.962;2022-07-23T15:24:34;101513.88;;;27.26;46.03
49979;BME280;35869;50.990;6.962;2022-07-23T15:29:35;101513.63;;;27.37;51.69
49979;BME280;35869;50.990;6.962;2022-07-23T15:34:35;101514.69;;;27.44;45.90
49979;BME280;35869;50.990;6.962;2022-07-23T15:39:35;101510.28;;;27.35;47.37
49979;BME280;35869;50.990;6.962;2022-07-23T15:44:35;101524.34;;;27.19;47.01
49979;BME280;35869;50.990;6.962;2022-07-23T15:49:35;101522.03;;;26.98;53.47
49979;BME280;35869;50.990;6.962;2022-07-23T15:54:37;101520.22;;;26.81;51.57
49979;BME280;35869;50.990;6.962;2022-07-23T15:59:37;101520.13;;;26.55;51.06
49979;BME280;35869;50.990;6.962;2022-07-23T16:04:41;101526.56;;;26.17;49.92
49979;BME280;35869;50.990;6.962;2022-07-23T16:09:41;101521.03;;;26.28;50.96
49979;BME280;35869;50.990;6.962;2022-07-23T16:14:41;101510.47;;;26.72;47.42
49979;BME280;35869;50.990;6.962;2022-07-23T16:19:45;101526.63;;;26.07;49.84
49979;BME280;35869;50.990;6.962;2022-07-23T16:24:45;101512.91;;;26.47;50.14
49979;BME280;35869;50.990;6.962;2022-07-23T16:29:46;101513.09;;;26.36;51.00
49979;BME280;35869;50.990;6.962;2022-07-23T16:34:46;101521.16;;;26.26;52.40
49979;BME280;35869;50.990;6.962;2022-07-23T16:39:46;101506.13;;;26.08;52.18
49979;BME280;35869;50.990;6.962;2022-07-23T16:44:48;101514.25;;;26.16;48.91
49979;BME280;35869;50.990;6.962;2022-07-23T16:49:48;101510.25;;;26.20;48.36
49979;BME280;35869;50.990;6.962;2022-07-23T16:54:48;101513.91;;;26.19;45.18
49979;BME280;35869;50.990;6.962;2022-07-23T16:59:49;101512.66;;;25.95;50.88
49979;BME280;35869;50.990;6.962;2022-07-23T17:04:49;101520.72;;;25.86;51.26
49979;BME280;35869;50.990;6.962;2022-07-23T17:09:50;101511.28;;;25.91;48.02
49979;BME280;35869;50.990;6.962;2022-07-23T17:14:50;101516.00;;;25.70;52.67
49979;BME280;35869;50.990;6.962;2022-07-23T17:19:50;101511.34;;;25.72;50.47
49979;BME280;35869;50.990;6.962;2022-07-23T17:24:52;101513.59;;;25.76;49.14
49979;BME280;35869;50.990;6.962;2022-07-23T17:29:52;101512.84;;;25.57;52.53
49979;BME280;35869;50.990;6.962;2022-07-23T17:34:53;101516.75;;;25.52;48.26
49979;BME280;35869;50.990;6.962;2022-07-23T17:39:53;101513.47;;;25.31;53.10
49979;BME280;35869;50.990;6.962;2022-07-23T17:44:53;101520.59;;;25.31;51.35
49979;BME280;35869;50.990;6.962;2022-07-23T17:49:54;101514.59;;;25.29;50.89
49979;BME280;35869;50.990;6.962;2022-07-23T17:54:57;101509.13;;;25.30;48.55
49979;BME280;35869;50.990;6.962;2022-07-23T17:59:58;101512.94;;;25.18;52.99
49979;BME280;35869;50.990;6.962;2022-07-23T18:04:58;101513.22;;;25.15;51.01
49979;BME280;35869;50.990;6.962;2022-07-23T18:09:58;101520.47;;;25.03;54.50
49979;BME280;35869;50.990;6.962;2022-07-23T18:14:59;101525.84;;;24.93;54.33
49979;BME280;35869;50.990;6.962;2022-07-23T18:19:59;101528.91;;;24.89;50.99
49979;BME280;35869;50.990;6.962;2022-07-23T18:24:59;101530.31;;;24.83;51.11
49979;BME280;35869;50.990;6.962;2022-07-23T18:29:59;101533.69;;;24.76;52.27
49979;BME280;35869;50.990;6.962;2022-07-23T18:35:01;101532.25;;;24.62;51.90
49979;BME280;35869;50.990;6.962;2022-07-23T18:40:02;101539.84;;;24.57;51.44
49979;BME280;35869;50.990;6.962;2022-07-23T18:45:04;101536.59;;;24.53;53.20
49979;BME280;35869;50.990;6.962;2022-07-23T18:50:08;101543.69;;;24.33;55.46
49979;BME280;35869;50.990;6.962;2022-07-23T18:55:10;101541.00;;;24.24;56.76
49979;BME280;35869;50.990;6.962;2022-07-23T19:00:10;101547.72;;;24.18;56.61
49979;BME280;35869;50.990;6.962;2022-07-23T19:05:11;101553.91;;;23.98;58.66
49979;BME280;35869;50.990;6.962;2022-07-23T19:10:11;101558.63;;;23.84;60.28
49979;BME280;35869;50.990;6.962;2022-07-23T19:15:12;101560.72;;;23.81;58.67
49979;BME280;35869;50.990;6.962;2022-07-23T19:20:13;101558.56;;;23.65;60.44
49979;BME280;35869;50.990;6.962;2022-07-23T19:25:13;101557.75;;;23.53;60.64
49979;BME280;35869;50.990;6.962;2022-07-23T19:30:13;101564.81;;;23.43;61.70
49979;BME280;35869;50.990;6.962;2022-07-23T19:35:14;101568.66;;;23.29;61.96
49979;BME280;35869;50.990;6.962;2022-07-23T19:40:14;101571.38;;;23.18;62.63
49979;BME280;35869;50.990;6.962;2022-07-23T19:45:14;101578.69;;;23.05;64.48
49979;BME280;35869;50.990;6.962;2022-07-23T19:50:15;101582.34;;;22.93;64.85
49979;BME280;35869;50.990;6.962;2022-07-23T19:55:15;101589.84;;;22.76;65.81
49979;BME280;35869;50.990;6.962;2022-07-23T20:00:16;101595.19;;;22.65;66.30
49979;BME280;35869;50.990;6.962;2022-07-23T20:05:16;101596.03;;;22.54;66.69
49979;BME280;35869;50.990;6.962;2022-07-23T20:10:17;101595.34;;;22.41;67.67
49979;BME280;35869;50.990;6.962;2022-07-23T20:15:39;101595.50;;;22.28;67.80
49979;BME280;35869;50.990;6.962;2022-07-23T20:20:39;101602.22;;;22.21;67.36
49979;BME280;35869;50.990;6.962;2022-07-23T20:25:39;101609.09;;;22.13;69.22
49979;BME280;35869;50.990;6.962;2022-07-23T20:30:39;101599.31;;;22.02;68.21
49979;BME280;35869;50.990;6.962;2022-07-23T20:35:40;101602.66;;;21.93;69.68
49979;BME280;35869;50.990;6.962;2022-07-23T20:40:41;101607.84;;;21.83;68.63
49979;BME280;35869;50.990;6.962;2022-07-23T20:45:42;101613.00;;;21.73;69.43
49979;BME280;35869;50.990;6.962;2022-07-23T20:50:43;101613.75;;;21.64;68.80
49979;BME280;35869;50.990;6.962;2022-07-23T20:55:43;101618.03;;;21.54;70.78
49979;BME280;35869;50.990;6.962;2022-07-23T21:00:43;101616.31;;;21.42;70.10
49979;BME280;35869;50.990;6.962;2022-07-23T21:05:43;101617.97;;;21.32;71.13
49979;BME280;35869;50.990;6.962;2022-07-23T21:10:44;101629.19;;;21.22;72.46
49979;BME280;35869;50.990;6.962;2022-07-23T21:15:45;101631.56;;;21.14;69.79
49979;BME280;35869;50.990;6.962;2022-07-23T21:20:46;101625.06;;;21.07;72.11
49979;BME280;35869;50.990;6.962;2022-07-23T21:25:46;101624.03;;;20.97;71.41
49979;BME280;35869;50.990;6.962;2022-07-23T21:30:46;101632.75;;;20.86;71.79
49979;BME280;35869;50.990;6.962;2022-07-23T21:35:46;101629.84;;;20.78;72.56
49979;BME280;35869;50.990;6.962;2022-07-23T21:40:47;101628.94;;;20.66;72.80
49979;BME280;35869;50.990;6.962;2022-07-23T21:45:48;101642.72;;;20.59;72.22
49979;BME280;35869;50.990;6.962;2022-07-23T21:50:49;101634.47;;;20.50;73.33
49979;BME280;35869;50.990;6.962;2022-07-23T21:55:49;101627.28;;;20.40;73.84
49979;BME280;35869;50.990;6.962;2022-07-23T22:00:50;101630.59;;;20.31;74.16
49979;BME280;35869;50.990;6.962;2022-07-23T22:05:50;101636.19;;;20.26;74.72
49979;BME280;35869;50.990;6.962;2022-07-23T22:10:50;101637.47;;;20.20;74.88
49979;BME280;35869;50.990;6.962;2022-07-23T22:15:51;101639.28;;;20.07;75.27
49979;BME280;35869;50.990;6.962;2022-07-23T22:20:51;101641.78;;;20.09;74.51
49979;BME280;35869;50.990;6.962;2022-07-23T22:25:52;101640.97;;;20.08;75.89
49979;BME280;35869;50.990;6.962;2022-07-23T22:30:56;101635.69;;;19.95;75.96
49979;BME280;35869;50.990;6.962;2022-07-23T22:35:56;101638.00;;;19.87;75.09
49979;BME280;35869;50.990;6.962;2022-07-23T22:40:58;101645.06;;;19.87;76.24
49979;BME280;35869;50.990;6.962;2022-07-23T22:45:58;101648.13;;;19.81;75.81
49979;BME280;35869;50.990;6.962;2022-07-23T22:50:58;101649.50;;;19.74;77.32
49979;BME280;35869;50.990;6.962;2022-07-23T22:55:59;101646.44;;;19.67;76.57
49979;BME280;35869;50.990;6.962;2022-07-23T23:00:59;101647.69;;;19.61;77.53
49979;BME280;35869;50.990;6.962;2022-07-23T23:05:59;101646.41;;;19.54;77.21
49979;BME280;35869;50.990;6.962;2022-07-23T23:10:59;101652.28;;;19.45;77.45
49979;BME280;35869;50.990;6.962;2022-07-23T23:16:00;101649.56;;;19.47;77.98
49979;BME280;35869;50.990;6.962;2022-07-23T23:21:00;101645.00;;;19.36;78.92
49979;BME280;35869;50.990;6.962;2022-07-23T23:26:00;101644.44;;;19.31;80.06
49979;BME280;35869;50.990;6.962;2022-07-23T23:31:00;101642.94;;;19.27;79.66
49979;BME280;35869;50.990;6.962;2022-07-23T23:36:01;101644.00;;;19.24;80.69
49979;BME280;35869;50.990;6.962;2022-07-23T23:41:02;101647.97;;;19.17;79.91
49979;BME280;35869;50.990;6.962;2022-07-23T23:46:02;101652.94;;;19.22;79.98
49979;BME280;35869;50.990;6.962;2022-07-23T23:51:02;101647.53;;;19.10;80.94
49979;BME280;35869;50.990;6.962;2022-07-23T23:56:03;101651.63;;;19.02;81.74
